Time;durP1;ratioP1;P1;durP2;ratioP2;P2;SDS_P1;SDS_P2;PMS_P1;PMS_P2;Temp;Humidity;BMP_temperature;BMP_pressure;BME280_temperature;BME280_humidity;BME280_pressure;Samples;Min_cycle;Max_cycle;Signal;HPM_P1;HPM_P2
2022/07/16 00:02:28;;;;;;;1.85;1.60;;;;;;;;;;5044622;28;20206;-68
2022/07/16 00:04:55;;;;;;;2.33;1.60;;;;;;;;;;5044333;28;20215;-68
2022/07/16 00:07:22;;;;;;;1.40;1.30;;;;;;;;;;5044307;28;20203;-67
2022/07/16 00:09:51;;;;;;;1.98;1.88;;;;;;;;;;5044583;28;20664;-68
2022/07/16 00:12:18;;;;;;;1.83;1.50;;;;;;;;;;5044691;28;20207;-68
2022/07/16 00:14:45;;;;;;;1.95;1.88;;;;;;;;;;5043952;28;20585;-68
2022/07/16 00:17:12;;;;;;;1.92;1.77;;;;;;;;;;5044840;28;20240;-68
2022/07/16 00:19:38;;;;;;;2.92;1.60;;;;;;;;;;5046932;28;20206;-68
2022/07/16 00:22:05;;;;;;;1.85;1.75;;;;;;;;;;5066631;28;20213;-67
2022/07/16 00:24:32;;;;;;;2.70;1.77;;;;;;;;;;5051898;28;20207;-68
2022/07/16 00:27:01;;;;;;;2.25;2.00;;;;;;;;;;5046061;28;20204;-68
2022/07/16 00:29:28;;;;;;;2.00;1.90;;;;;;;;;;5045420;28;20212;-68
2022/07/16 00:31:55;;;;;;;2.15;1.80;;;;;;;;;;5044286;28;20199;-67
2022/07/16 00:34:22;;;;;;;2.05;1.80;;;;;;;;;;5044066;28;20212;-68
2022/07/16 00:36:50;;;;;;;2.25;2.05;;;;;;;;;;5048541;28;20646;-67
2022/07/16 00:39:18;;;;;;;1.98;1.95;;;;;;;;;;5066179;28;20211;-68
2022/07/16 00:41:46;;;;;;;2.03;1.92;;;;;;;;;;5047720;28;20214;-68
2022/07/16 00:44:16;;;;;;;2.17;2.08;;;;;;;;;;5043409;28;20674;-68
2022/07/16 00:46:43;;;;;;;2.20;2.10;;;;;;;;;;5045647;28;20725;-67
2022/07/16 00:49:10;;;;;;;2.00;2.00;;;;;;;;;;5045578;28;20302;-68
2022/07/16 00:51:38;;;;;;;4.55;2.30;;;;;;;;;;5048363;28;20266;-68
2022/07/16 00:54:05;;;;;;;3.03;2.17;;;;;;;;;;5048457;28;20223;-68
2022/07/16 00:56:32;;;;;;;1.88;1.77;;;;;;;;;;5048034;28;20740;-67
2022/07/16 00:58:59;;;;;;;3.28;2.15;;;;;;;;;;5047633;28;20223;-68
2022/07/16 01:01:28;;;;;;;2.20;2.08;;;;;;;;;;5049291;28;20213;-67
2022/07/16 01:03:55;;;;;;;2.47;2.38;;;;;;;;;;5051281;28;20207;-68
2022/07/16 01:06:23;;;;;;;2.53;2.25;;;;;;;;;;5050906;28;20211;-67
2022/07/16 01:08:50;;;;;;;3.53;2.42;;;;;;;;;;5050183;28;20222;-68
2022/07/16 01:11:18;;;;;;;2.30;2.25;;;;;;;;;;5049476;28;20215;-68
2022/07/16 01:13:47;;;;;;;2.47;2.28;;;;;;;;;;5051306;28;20269;-68
2022/07/16 01:16:14;;;;;;;2.13;2.03;;;;;;;;;;5049818;28;20208;-68
2022/07/16 01:18:43;;;;;;;2.42;2.33;;;;;;;;;;5046961;28;20630;-68
2022/07/16 01:21:10;;;;;;;2.15;2.05;;;;;;;;;;5049825;28;20214;-68
2022/07/16 01:23:38;;;;;;;2.63;2.42;;;;;;;;;;5047207;28;20200;-68
2022/07/16 01:26:05;;;;;;;3.30;2.92;;;;;;;;;;5049696;28;20200;-68
2022/07/16 01:28:33;;;;;;;2.22;2.13;;;;;;;;;;5047919;28;20200;-68
2022/07/16 01:31:00;;;;;;;2.20;2.10;;;;;;;;;;5049196;28;20215;-68
2022/07/16 01:33:28;;;;;;;2.45;2.35;;;;;;;;;;5050770;28;20195;-68
2022/07/16 01:35:57;;;;;;;2.33;2.23;;;;;;;;;;5049212;28;20628;-67
2022/07/16 01:38:24;;;;;;;2.53;2.40;;;;;;;;;;5049252;28;20508;-68
2022/07/16 01:40:53;;;;;;;2.40;2.30;;;;;;;;;;5047605;28;20227;-68
2022/07/16 01:43:20;;;;;;;2.10;2.10;;;;;;;;;;5048997;28;20208;-67
2022/07/16 01:45:48;;;;;;;6.70;2.42;;;;;;;;;;5048693;28;20587;-67
2022/07/16 01:48:15;;;;;;;1.98;1.98;;;;;;;;;;5047467;28;20195;-68
2022/07/16 01:50:43;;;;;;;2.35;2.03;;;;;;;;;;5046881;28;20201;-67
2022/07/16 01:53:10;;;;;;;3.05;2.78;;;;;;;;;;5048945;28;20424;-68
2022/07/16 01:55:38;;;;;;;2.88;2.55;;;;;;;;;;5046136;28;20874;-68
2022/07/16 01:58:07;;;;;;;2.13;2.13;;;;;;;;;;5046986;28;20712;-67
2022/07/16 02:00:35;;;;;;;2.40;2.30;;;;;;;;;;5044600;28;20211;-67
2022/07/16 02:03:02;;;;;;;4.18;2.60;;;;;;;;;;5048076;28;20196;-67
2022/07/16 02:05:29;;;;;;;2.78;2.63;;;;;;;;;;5049769;28;20199;-68
2022/07/16 02:07:56;;;;;;;2.25;2.17;;;;;;;;;;5048575;28;20210;-67
2022/07/16 02:10:23;;;;;;;2.37;2.27;;;;;;;;;;5046958;28;20200;-67
2022/07/16 02:12:50;;;;;;;2.08;2.08;;;;;;;;;;5048432;28;20218;-67
2022/07/16 02:15:18;;;;;;;2.30;2.20;;;;;;;;;;5048028;28;20208;-68
2022/07/16 02:17:45;;;;;;;3.42;2.00;;;;;;;;;;5048627;28;20224;-67
2022/07/16 02:20:13;;;;;;;2.45;2.35;;;;;;;;;;5048862;28;20203;-68
2022/07/16 02:22:40;;;;;;;2.33;2.22;;;;;;;;;;5048326;28;20243;-67
2022/07/16 02:25:08;;;;;;;2.55;2.17;;;;;;;;;;5048492;28;20211;-67
2022/07/16 02:27:35;;;;;;;2.80;2.17;;;;;;;;;;5047702;28;20235;-67
2022/07/16 02:30:03;;;;;;;2.20;2.10;;;;;;;;;;5049583;28;20281;-67
2022/07/16 02:32:31;;;;;;;3.57;2.60;;;;;;;;;;5049498;28;20212;-68
2022/07/16 02:34:58;;;;;;;3.25;2.95;;;;;;;;;;5048049;28;20230;-67
2022/07/16 02:37:25;;;;;;;2.70;2.50;;;;;;;;;;5050094;28;20208;-67
2022/07/16 02:39:52;;;;;;;2.10;2.00;;;;;;;;;;5049811;28;20632;-68
2022/07/16 02:42:19;;;;;;;2.42;2.22;;;;;;;;;;5050020;28;20211;-68
2022/07/16 02:44:46;;;;;;;2.58;2.38;;;;;;;;;;5043327;28;20215;-68
2022/07/16 02:47:13;;;;;;;2.40;2.30;;;;;;;;;;5049668;28;20239;-67
2022/07/16 02:49:42;;;;;;;2.13;2.10;;;;;;;;;;5049474;28;20261;-67
2022/07/16 02:52:09;;;;;;;2.40;2.30;;;;;;;;;;5049155;28;20626;-67
2022/07/16 02:54:36;;;;;;;2.43;2.30;;;;;;;;;;5049201;28;20278;-67
2022/07/16 02:57:03;;;;;;;2.30;2.30;;;;;;;;;;5049567;28;20253;-67
2022/07/16 02:59:30;;;;;;;2.67;2.47;;;;;;;;;;5049066;28;20230;-67
2022/07/16 03:01:57;;;;;;;3.53;2.20;;;;;;;;;;5049633;28;20222;-67
2022/07/16 03:04:24;;;;;;;2.40;2.30;;;;;;;;;;5048486;28;20234;-67
2022/07/16 03:06:52;;;;;;;2.70;2.50;;;;;;;;;;5048459;28;20216;-68
2022/07/16 03:09:19;;;;;;;2.63;2.20;;;;;;;;;;5048037;28;20203;-67
2022/07/16 03:11:46;;;;;;;2.23;2.13;;;;;;;;;;5046892;28;20234;-67
2022/07/16 03:14:13;;;;;;;2.40;2.33;;;;;;;;;;5046500;28;20207;-68
2022/07/16 03:16:40;;;;;;;2.80;2.60;;;;;;;;;;5045329;28;20211;-67
2022/07/16 03:19:07;;;;;;;2.30;2.20;;;;;;;;;;5040869;28;20235;-67
2022/07/16 03:21:34;;;;;;;2.43;2.13;;;;;;;;;;5048974;28;20211;-68
2022/07/16 03:24:03;;;;;;;3.47;2.70;;;;;;;;;;5048527;28;20266;-68
2022/07/16 03:26:30;;;;;;;2.57;2.50;;;;;;;;;;5049179;28;20591;-67
2022/07/16 03:28:57;;;;;;;2.90;2.70;;;;;;;;;;5048635;28;20261;-67
2022/07/16 03:31:24;;;;;;;4.67;2.77;;;;;;;;;;5047913;28;20222;-67
2022/07/16 03:33:51;;;;;;;3.27;2.80;;;;;;;;;;5045052;28;20646;-68
2022/07/16 03:36:18;;;;;;;2.80;2.70;;;;;;;;;;5046244;28;20666;-68
2022/07/16 03:41:28;;;;;;;2.43;2.33;;;;;;;;;;5045354;28;20312;-65
2022/07/16 03:43:55;;;;;;;2.50;2.50;;;;;;;;;;5046708;28;20207;-65
2022/07/16 03:46:22;;;;;;;3.67;2.90;;;;;;;;;;5046558;28;20308;-65
2022/07/16 03:48:49;;;;;;;2.70;2.60;;;;;;;;;;5047972;28;20772;-67
2022/07/16 03:51:16;;;;;;;2.97;2.77;;;;;;;;;;5048051;28;20207;-68
2022/07/16 03:53:43;;;;;;;2.90;2.77;;;;;;;;;;5047388;28;20203;-67
2022/07/16 03:56:11;;;;;;;2.50;2.30;;;;;;;;;;5046900;28;20258;-67
2022/07/16 03:58:39;;;;;;;3.00;2.80;;;;;;;;;;5046492;28;20343;-68
2022/07/16 04:01:06;;;;;;;2.97;2.67;;;;;;;;;;5046885;28;20204;-68
2022/07/16 04:03:34;;;;;;;3.97;3.03;;;;;;;;;;5047393;28;20555;-68
2022/07/16 04:06:01;;;;;;;5.50;2.80;;;;;;;;;;5047903;28;20208;-68
2022/07/16 04:08:28;;;;;;;3.70;2.40;;;;;;;;;;5047237;28;20208;-67
2022/07/16 04:10:55;;;;;;;3.40;3.10;;;;;;;;;;5046570;28;20701;-68
2022/07/16 04:13:22;;;;;;;3.50;2.80;;;;;;;;;;5047205;28;20800;-68
2022/07/16 04:15:51;;;;;;;2.50;2.30;;;;;;;;;;5046558;28;20211;-67
2022/07/16 04:18:18;;;;;;;2.50;2.40;;;;;;;;;;5048549;28;20238;-68
2022/07/16 04:20:45;;;;;;;2.13;2.03;;;;;;;;;;5049130;28;20212;-68
2022/07/16 04:23:12;;;;;;;2.70;2.60;;;;;;;;;;5047960;28;20200;-68
2022/07/16 04:25:39;;;;;;;2.50;2.40;;;;;;;;;;5052795;28;20720;-68
2022/07/16 04:28:06;;;;;;;3.57;2.60;;;;;;;;;;5052264;28;20207;-67
2022/07/16 04:30:33;;;;;;;2.40;2.30;;;;;;;;;;5050855;28;20245;-68
2022/07/16 04:33:02;;;;;;;2.30;2.27;;;;;;;;;;5051892;28;20261;-65
2022/07/16 04:35:29;;;;;;;2.60;2.50;;;;;;;;;;5052512;28;20261;-65
2022/07/16 04:37:56;;;;;;;2.60;2.40;;;;;;;;;;5052249;28;20242;-65
2022/07/16 04:40:23;;;;;;;2.83;2.73;;;;;;;;;;5052320;28;20258;-66
2022/07/16 04:42:50;;;;;;;2.70;2.60;;;;;;;;;;5051543;28;20211;-66
2022/07/16 04:45:17;;;;;;;2.60;2.50;;;;;;;;;;5050195;28;20210;-66
2022/07/16 04:47:44;;;;;;;2.88;2.65;;;;;;;;;;5049815;28;20200;-66
2022/07/16 04:50:12;;;;;;;2.50;2.50;;;;;;;;;;5050697;28;20211;-66
2022/07/16 04:52:39;;;;;;;5.45;2.83;;;;;;;;;;5050051;28;20219;-66
2022/07/16 04:55:07;;;;;;;3.00;2.40;;;;;;;;;;5049226;28;20242;-66
2022/07/16 04:57:34;;;;;;;4.00;2.55;;;;;;;;;;5050016;28;20211;-66
2022/07/16 05:00:01;;;;;;;2.58;2.47;;;;;;;;;;5049362;28;20772;-65
2022/07/16 05:05:14;;;;;;;2.65;2.53;;;;;;;;;;5049890;28;20211;-66
2022/07/16 05:07:41;;;;;;;2.90;2.70;;;;;;;;;;5049750;28;20258;-66
2022/07/16 05:10:09;;;;;;;2.60;2.50;;;;;;;;;;5049204;28;20200;-65
2022/07/16 05:12:36;;;;;;;3.03;2.60;;;;;;;;;;5047796;28;20215;-66
2022/07/16 05:15:03;;;;;;;2.85;2.65;;;;;;;;;;5051713;28;20215;-66
2022/07/16 05:17:30;;;;;;;2.40;2.30;;;;;;;;;;5052098;28;20265;-66
2022/07/16 05:19:57;;;;;;;2.75;2.63;;;;;;;;;;5057501;28;20230;-66
2022/07/16 05:22:26;;;;;;;2.47;2.38;;;;;;;;;;5071759;28;20670;-66
2022/07/16 05:24:53;;;;;;;3.13;2.22;;;;;;;;;;5065601;28;20203;-66
2022/07/16 05:27:20;;;;;;;1.88;1.77;;;;;;;;;;5062940;28;20281;-66
2022/07/16 05:29:47;;;;;;;4.60;2.10;;;;;;;;;;5050206;28;20203;-67
2022/07/16 05:32:14;;;;;;;3.55;1.92;;;;;;;;;;5050874;28;20204;-66
2022/07/16 05:34:41;;;;;;;2.65;1.83;;;;;;;;;;5056052;28;20572;-67
2022/07/16 05:37:08;;;;;;;2.25;2.08;;;;;;;;;;5058025;28;20204;-66
2022/07/16 05:39:36;;;;;;;2.00;1.90;;;;;;;;;;5052727;28;20278;-66
2022/07/16 05:42:03;;;;;;;1.73;1.70;;;;;;;;;;5051465;28;20231;-66
2022/07/16 05:44:30;;;;;;;2.97;1.88;;;;;;;;;;5051112;28;20702;-67
2022/07/16 05:46:57;;;;;;;4.10;1.88;;;;;;;;;;5060639;28;20243;-66
2022/07/16 05:49:24;;;;;;;2.03;1.80;;;;;;;;;;5050185;28;20605;-66
2022/07/16 05:51:51;;;;;;;3.30;1.65;;;;;;;;;;5050660;28;20724;-66
2022/07/16 05:54:18;;;;;;;1.70;1.70;;;;;;;;;;5049484;28;20231;-67
2022/07/16 05:56:47;;;;;;;1.92;1.58;;;;;;;;;;5051239;28;20289;-67
2022/07/16 05:59:15;;;;;;;1.90;1.85;;;;;;;;;;5041550;28;20220;-66
2022/07/16 06:01:42;;;;;;;2.33;1.70;;;;;;;;;;5050270;28;20576;-67
2022/07/16 06:04:09;;;;;;;2.45;1.75;;;;;;;;;;5050261;28;20203;-67
2022/07/16 06:06:36;;;;;;;2.83;1.63;;;;;;;;;;5050630;28;20584;-67
2022/07/16 06:09:03;;;;;;;1.38;1.27;;;;;;;;;;5057973;28;20351;-67
2022/07/16 06:11:30;;;;;;;5.45;1.33;;;;;;;;;;5055136;28;20207;-67
2022/07/16 06:13:58;;;;;;;1.55;1.40;;;;;;;;;;5049822;28;20751;-67
2022/07/16 06:16:25;;;;;;;1.58;1.17;;;;;;;;;;5050055;28;20211;-66
2022/07/16 06:18:53;;;;;;;1.33;1.33;;;;;;;;;;5050151;28;20204;-67
2022/07/16 06:21:20;;;;;;;1.23;1.20;;;;;;;;;;5049985;28;20656;-67
2022/07/16 06:23:47;;;;;;;2.10;1.40;;;;;;;;;;5044357;28;20204;-67
2022/07/16 06:26:14;;;;;;;1.13;1.13;;;;;;;;;;5050818;28;20253;-68
2022/07/16 06:28:41;;;;;;;2.28;1.20;;;;;;;;;;5050087;28;20208;-67
2022/07/16 06:31:09;;;;;;;1.40;1.30;;;;;;;;;;5049862;28;20628;-68
2022/07/16 06:33:36;;;;;;;1.58;1.27;;;;;;;;;;5049675;28;20208;-67
2022/07/16 06:36:06;;;;;;;3.30;1.50;;;;;;;;;;5050422;28;20681;-67
2022/07/16 06:38:33;;;;;;;1.02;1.00;;;;;;;;;;5049531;28;20211;-67
2022/07/16 06:41:00;;;;;;;1.38;1.27;;;;;;;;;;5049938;28;20314;-67
2022/07/16 06:43:27;;;;;;;1.70;1.50;;;;;;;;;;5049597;28;20234;-67
2022/07/16 06:45:54;;;;;;;4.97;1.05;;;;;;;;;;5049519;28;20242;-67
2022/07/16 06:48:23;;;;;;;3.65;1.15;;;;;;;;;;5049551;28;20257;-67
2022/07/16 06:50:51;;;;;;;2.17;1.10;;;;;;;;;;5046954;28;20199;-67
2022/07/16 06:53:18;;;;;;;3.00;1.25;;;;;;;;;;5049894;28;20207;-67
2022/07/16 06:55:45;;;;;;;1.58;1.15;;;;;;;;;;5050364;28;20289;-65
2022/07/16 06:58:12;;;;;;;1.63;0.98;;;;;;;;;;5048511;28;20200;-65
2022/07/16 07:00:39;;;;;;;1.85;0.90;;;;;;;;;;5048196;28;20223;-65
2022/07/16 07:03:06;;;;;;;0.90;0.90;;;;;;;;;;5049743;28;20207;-64
2022/07/16 07:05:34;;;;;;;1.50;0.88;;;;;;;;;;5042185;28;20295;-64
2022/07/16 07:08:01;;;;;;;1.63;1.00;;;;;;;;;;5044412;28;20241;-64
2022/07/16 07:10:28;;;;;;;1.55;0.98;;;;;;;;;;5049031;28;20204;-64
2022/07/16 07:12:55;;;;;;;3.00;0.95;;;;;;;;;;5049131;28;21083;-64
2022/07/16 07:15:22;;;;;;;2.90;1.00;;;;;;;;;;5048036;28;20697;-65
2022/07/16 07:17:50;;;;;;;0.85;0.85;;;;;;;;;;5049270;28;20207;-65
2022/07/16 07:20:17;;;;;;;1.95;1.33;;;;;;;;;;5049104;28;20246;-65
2022/07/16 07:22:46;;;;;;;3.70;0.95;;;;;;;;;;5049361;28;20231;-64
2022/07/16 07:25:13;;;;;;;2.83;1.00;;;;;;;;;;5049004;28;20261;-65
2022/07/16 07:27:40;;;;;;;0.85;0.85;;;;;;;;;;5048770;28;20221;-65
2022/07/16 07:30:08;;;;;;;2.70;0.90;;;;;;;;;;5048628;28;20200;-64
2022/07/16 07:32:35;;;;;;;3.20;0.95;;;;;;;;;;5049201;28;20211;-65
2022/07/16 07:35:02;;;;;;;1.88;0.90;;;;;;;;;;5047918;28;20717;-65
2022/07/16 07:37:29;;;;;;;4.05;0.90;;;;;;;;;;5048962;28;20211;-64
2022/07/16 07:39:58;;;;;;;3.55;1.13;;;;;;;;;;5049023;28;20238;-64
2022/07/16 07:42:25;;;;;;;1.10;1.00;;;;;;;;;;5049693;28;20302;-65
2022/07/16 07:44:52;;;;;;;2.55;0.88;;;;;;;;;;5048977;28;20246;-63
2022/07/16 07:47:19;;;;;;;1.65;0.85;;;;;;;;;;5047193;28;20243;-64
2022/07/16 07:49:46;;;;;;;3.60;1.00;;;;;;;;;;5050467;28;20327;-64
2022/07/16 07:52:13;;;;;;;3.08;1.10;;;;;;;;;;5048999;28;20207;-64
2022/07/16 07:54:40;;;;;;;1.90;1.10;;;;;;;;;;5048635;28;20527;-64
2022/07/16 07:57:08;;;;;;;0.80;0.80;;;;;;;;;;5048678;28;20199;-64
2022/07/16 07:59:35;;;;;;;2.05;1.00;;;;;;;;;;5048678;28;20318;-63
2022/07/16 08:02:02;;;;;;;1.05;0.90;;;;;;;;;;5054840;28;20208;-65
2022/07/16 08:04:33;;;;;;;1.00;1.00;;;;;;;;;;5053882;28;20211;-63
2022/07/16 08:07:00;;;;;;;1.75;1.00;;;;;;;;;;5055598;28;21086;-64
2022/07/16 08:09:27;;;;;;;0.95;0.70;;;;;;;;;;5055943;28;20203;-63
2022/07/16 08:11:54;;;;;;;1.10;0.90;;;;;;;;;;5054829;28;20203;-64
2022/07/16 08:14:23;;;;;;;1.20;0.90;;;;;;;;;;5055763;28;20215;-65
2022/07/16 08:16:50;;;;;;;1.05;0.82;;;;;;;;;;5055125;28;20696;-65
2022/07/16 08:19:17;;;;;;;1.20;0.80;;;;;;;;;;5055652;28;20577;-64
2022/07/16 08:21:45;;;;;;;1.23;1.17;;;;;;;;;;5055603;28;20246;-65
2022/07/16 08:26:57;;;;;;;0.98;0.77;;;;;;;;;;5056117;28;20223;-65
2022/07/16 08:29:25;;;;;;;0.75;0.75;;;;;;;;;;5055412;28;20344;-65
2022/07/16 08:31:52;;;;;;;2.17;1.00;;;;;;;;;;5054779;28;20250;-65
2022/07/16 08:34:22;;;;;;;1.83;0.80;;;;;;;;;;5055909;28;20226;-65
2022/07/16 08:36:50;;;;;;;0.75;0.70;;;;;;;;;;5055502;28;20249;-65
2022/07/16 08:39:17;;;;;;;2.47;0.93;;;;;;;;;;5055589;28;20261;-65
2022/07/16 08:41:45;;;;;;;1.73;0.82;;;;;;;;;;5060698;28;20309;-65
2022/07/16 08:44:12;;;;;;;2.47;0.93;;;;;;;;;;5065271;28;20211;-64
2022/07/16 08:46:41;;;;;;;5.55;1.13;;;;;;;;;;5054802;28;20296;-67
2022/07/16 08:49:08;;;;;;;0.73;0.73;;;;;;;;;;5055126;28;20885;-67
2022/07/16 08:51:37;;;;;;;1.20;1.10;;;;;;;;;;5053585;28;20273;-67
2022/07/16 08:54:06;;;;;;;1.70;0.95;;;;;;;;;;5055357;28;20208;-67
2022/07/16 08:56:34;;;;;;;1.13;0.85;;;;;;;;;;5054010;28;20211;-68
2022/07/16 08:59:02;;;;;;;1.58;1.23;;;;;;;;;;5055982;28;20212;-67
2022/07/16 09:01:30;;;;;;;1.35;0.85;;;;;;;;;;5055500;28;20223;-67
2022/07/16 09:03:59;;;;;;;0.90;0.90;;;;;;;;;;5059196;28;20234;-67
2022/07/16 09:06:26;;;;;;;1.00;0.90;;;;;;;;;;5070217;28;20206;-67
2022/07/16 09:08:53;;;;;;;0.90;0.90;;;;;;;;;;5055955;28;20219;-67
2022/07/16 09:11:22;;;;;;;1.05;1.05;;;;;;;;;;5072376;28;20199;-67
2022/07/16 09:14:00;;;;;;;1.10;1.00;;;;;;;;;;5031387;28;20232;-68
2022/07/16 09:16:30;;;;;;;2.15;0.80;;;;;;;;;;5042212;28;20227;-68
2022/07/16 09:19:10;;;;;;;0.80;0.80;;;;;;;;;;5051940;28;20700;-67
2022/07/16 09:21:38;;;;;;;1.40;0.90;;;;;;;;;;5051448;28;20223;-67
2022/07/16 09:24:05;;;;;;;3.92;1.25;;;;;;;;;;5052039;28;20207;-65
2022/07/16 09:26:32;;;;;;;1.02;0.88;;;;;;;;;;5051634;28;20294;-68
2022/07/16 09:29:02;;;;;;;3.30;0.68;;;;;;;;;;5050495;28;20199;-68
2022/07/16 09:31:33;;;;;;;0.77;0.77;;;;;;;;;;5051340;28;20206;-64
2022/07/16 09:34:04;;;;;;;1.08;0.82;;;;;;;;;;5051148;28;20211;-65
2022/07/16 09:36:33;;;;;;;2.33;1.00;;;;;;;;;;5050992;28;20200;-63
2022/07/16 09:39:00;;;;;;;0.90;0.90;;;;;;;;;;5051931;28;20281;-64
2022/07/16 09:41:27;;;;;;;1.10;1.00;;;;;;;;;;5049067;28;20242;-67
2022/07/16 09:43:54;;;;;;;1.17;1.08;;;;;;;;;;5051393;28;20212;-65
2022/07/16 09:46:22;;;;;;;1.10;0.80;;;;;;;;;;5051221;28;20236;-65
2022/07/16 09:48:50;;;;;;;3.40;1.30;;;;;;;;;;5051605;28;20692;-65
2022/07/16 09:51:20;;;;;;;3.83;1.10;;;;;;;;;;5034549;28;20203;-65
2022/07/16 09:53:49;;;;;;;1.10;1.10;;;;;;;;;;5051101;28;20628;-63
2022/07/16 09:56:17;;;;;;;2.60;1.10;;;;;;;;;;5050966;28;20219;-65
2022/07/16 09:58:48;;;;;;;3.22;1.10;;;;;;;;;;5050885;28;20196;-66
2022/07/16 10:01:15;;;;;;;1.17;1.17;;;;;;;;;;5051089;28;20270;-65
2022/07/16 10:03:42;;;;;;;3.40;1.10;;;;;;;;;;5050154;28;20750;-64
2022/07/16 10:06:10;;;;;;;1.05;0.98;;;;;;;;;;5051287;28;20299;-65
2022/07/16 10:08:37;;;;;;;1.92;1.83;;;;;;;;;;5050767;28;20257;-66
2022/07/16 10:11:06;;;;;;;1.15;1.15;;;;;;;;;;5050892;28;20611;-65
2022/07/16 10:13:34;;;;;;;0.90;0.90;;;;;;;;;;5050381;28;20211;-68
2022/07/16 10:16:01;;;;;;;1.30;1.02;;;;;;;;;;5050012;28;20227;-67
2022/07/16 10:18:32;;;;;;;1.95;1.20;;;;;;;;;;5050795;28;20220;-66
2022/07/16 10:21:03;;;;;;;1.13;1.13;;;;;;;;;;5049838;28;20698;-71
2022/07/16 10:23:30;;;;;;;3.50;1.33;;;;;;;;;;5049984;28;20261;-66
2022/07/16 10:25:58;;;;;;;1.13;1.08;;;;;;;;;;5050244;28;20753;-67
2022/07/16 10:28:44;;;;;;;1.95;0.90;;;;;;;;;;5050439;28;20290;-67
2022/07/16 10:31:30;;;;;;;1.00;1.00;;;;;;;;;;5049877;28;20195;-67
2022/07/16 10:34:12;;;;;;;0.90;0.90;;;;;;;;;;5048848;28;20210;-69
2022/07/16 10:36:46;;;;;;;1.42;1.27;;;;;;;;;;5050330;28;20270;-70
2022/07/16 10:39:15;;;;;;;1.00;1.00;;;;;;;;;;5038745;28;20239;-67
2022/07/16 10:41:48;;;;;;;1.85;0.90;;;;;;;;;;5048272;28;20988;-67
2022/07/16 10:44:17;;;;;;;2.38;1.05;;;;;;;;;;5050336;28;20291;-68
2022/07/16 10:46:54;;;;;;;2.45;1.30;;;;;;;;;;5045856;28;20243;-68
2022/07/16 10:49:21;;;;;;;3.10;0.95;;;;;;;;;;5050153;28;20645;-68
2022/07/16 10:51:55;;;;;;;0.88;0.88;;;;;;;;;;5049882;28;20210;-68
2022/07/16 10:54:22;;;;;;;2.53;1.00;;;;;;;;;;5049210;28;20227;-68
2022/07/16 10:56:51;;;;;;;3.88;0.98;;;;;;;;;;5049956;28;20923;-69
2022/07/16 10:59:20;;;;;;;2.88;1.25;;;;;;;;;;5050072;28;20215;-68
2022/07/16 11:01:48;;;;;;;1.10;1.00;;;;;;;;;;5049704;28;20227;-68
2022/07/16 11:04:16;;;;;;;0.82;0.82;;;;;;;;;;5049381;28;20273;-68
2022/07/16 11:06:49;;;;;;;0.70;0.70;;;;;;;;;;5049070;28;20215;-69
2022/07/16 11:09:16;;;;;;;2.85;1.02;;;;;;;;;;5049236;28;20237;-69
2022/07/16 11:11:43;;;;;;;0.98;0.93;;;;;;;;;;5048865;28;20218;-68
2022/07/16 11:14:11;;;;;;;1.20;1.10;;;;;;;;;;5048519;28;20204;-72
2022/07/16 11:16:48;;;;;;;1.15;1.10;;;;;;;;;;5040207;28;20211;-72
2022/07/16 11:19:16;;;;;;;1.60;0.80;;;;;;;;;;5029487;28;20208;-71
2022/07/16 11:21:52;;;;;;;6.13;1.30;;;;;;;;;;5047417;28;20262;-67
2022/07/16 11:24:20;;;;;;;1.17;1.08;;;;;;;;;;5048092;28;20212;-66
2022/07/16 11:26:47;;;;;;;3.08;1.00;;;;;;;;;;5048069;28;20208;-61
2022/07/16 11:29:14;;;;;;;1.65;1.33;;;;;;;;;;5049140;28;20294;-61
2022/07/16 11:31:43;;;;;;;1.80;1.15;;;;;;;;;;5048056;28;20196;-63
2022/07/16 11:34:11;;;;;;;1.00;1.00;;;;;;;;;;5037929;28;20206;-64
2022/07/16 11:36:39;;;;;;;2.88;1.05;;;;;;;;;;5047735;28;20199;-64
2022/07/16 11:39:07;;;;;;;1.45;1.15;;;;;;;;;;5054215;28;20218;-64
2022/07/16 11:41:34;;;;;;;3.00;1.30;;;;;;;;;;5049862;28;20235;-67
2022/07/16 11:44:08;;;;;;;1.70;1.08;;;;;;;;;;5049155;28;20250;-65
2022/07/16 11:46:35;;;;;;;1.45;1.35;;;;;;;;;;5048450;28;20293;-63
2022/07/16 11:49:03;;;;;;;1.20;1.20;;;;;;;;;;5047620;28;20208;-65
2022/07/16 11:51:30;;;;;;;1.30;1.20;;;;;;;;;;5046999;28;20256;-68
2022/07/16 11:53:57;;;;;;;3.05;1.20;;;;;;;;;;5046617;28;20622;-66
2022/07/16 11:56:34;;;;;;;1.25;1.15;;;;;;;;;;5046542;28;20206;-65
2022/07/16 11:59:01;;;;;;;1.13;1.10;;;;;;;;;;5049526;28;20226;-63
2022/07/16 12:01:31;;;;;;;1.33;1.33;;;;;;;;;;5049740;28;20297;-61
2022/07/16 12:03:58;;;;;;;1.17;1.13;;;;;;;;;;5044287;28;20299;-65
2022/07/16 12:06:27;;;;;;;1.13;1.13;;;;;;;;;;5045124;28;20203;-66
2022/07/16 12:08:54;;;;;;;1.27;1.27;;;;;;;;;;5060194;28;20215;-65
2022/07/16 12:11:21;;;;;;;2.88;1.20;;;;;;;;;;5048885;28;20583;-64
2022/07/16 12:13:53;;;;;;;1.23;1.10;;;;;;;;;;5049018;28;20215;-61
2022/07/16 12:16:20;;;;;;;2.80;1.35;;;;;;;;;;5049262;28;20326;-63
2022/07/16 12:18:59;;;;;;;1.00;1.00;;;;;;;;;;5048862;28;20207;-61
2022/07/16 12:21:28;;;;;;;2.40;1.40;;;;;;;;;;5049228;28;20238;-61
2022/07/16 12:23:56;;;;;;;3.05;2.85;;;;;;;;;;5048877;28;20208;-61
2022/07/16 12:26:28;;;;;;;5.75;3.25;;;;;;;;;;5048986;28;20222;-63
2022/07/16 12:28:56;;;;;;;3.67;1.92;;;;;;;;;;5047349;28;20290;-64
2022/07/16 12:31:23;;;;;;;1.10;1.10;;;;;;;;;;5047666;28;20196;-64
2022/07/16 12:33:51;;;;;;;1.30;1.30;;;;;;;;;;5047054;28;20215;-64
2022/07/16 12:36:19;;;;;;;4.53;3.17;;;;;;;;;;5047344;28;20214;-64
2022/07/16 12:38:51;;;;;;;1.60;1.50;;;;;;;;;;5044377;28;20211;-63
2022/07/16 12:41:20;;;;;;;2.45;1.75;;;;;;;;;;5047563;28;20219;-63
2022/07/16 12:43:49;;;;;;;3.13;1.60;;;;;;;;;;5045183;28;20215;-63
2022/07/16 12:46:16;;;;;;;2.28;1.20;;;;;;;;;;5047220;28;20235;-63
2022/07/16 12:48:47;;;;;;;1.38;1.33;;;;;;;;;;5049225;28;20208;-63
2022/07/16 12:51:16;;;;;;;1.80;1.63;;;;;;;;;;5051612;28;20452;-63
2022/07/16 12:53:43;;;;;;;2.95;1.55;;;;;;;;;;5051356;28;20207;-64
2022/07/16 12:58:57;;;;;;;1.52;1.30;;;;;;;;;;5050443;28;20211;-64
2022/07/16 13:01:25;;;;;;;2.35;1.33;;;;;;;;;;5050548;28;20215;-64
2022/07/16 13:03:52;;;;;;;1.30;1.30;;;;;;;;;;5045839;28;20206;-64
2022/07/16 13:06:20;;;;;;;1.60;1.50;;;;;;;;;;5044616;28;20216;-64
2022/07/16 13:08:47;;;;;;;1.30;1.20;;;;;;;;;;5050074;28;20254;-63
2022/07/16 13:11:17;;;;;;;1.42;1.42;;;;;;;;;;5051279;28;20203;-64
2022/07/16 13:13:45;;;;;;;4.97;1.20;;;;;;;;;;5051214;28;20203;-64
2022/07/16 13:16:12;;;;;;;1.33;1.33;;;;;;;;;;5051023;28;20199;-63
2022/07/16 13:18:39;;;;;;;1.58;1.50;;;;;;;;;;5048436;28;20234;-64
2022/07/16 13:21:07;;;;;;;5.43;1.20;;;;;;;;;;5050038;28;20207;-64
2022/07/16 13:23:35;;;;;;;1.25;1.25;;;;;;;;;;5050257;28;20211;-65
2022/07/16 13:26:02;;;;;;;1.77;1.55;;;;;;;;;;5049881;28;20204;-65
2022/07/16 13:28:30;;;;;;;1.20;1.20;;;;;;;;;;5052992;28;21223;-65
2022/07/16 13:30:58;;;;;;;1.30;1.30;;;;;;;;;;5048034;28;20211;-66
2022/07/16 13:33:25;;;;;;;1.50;1.40;;;;;;;;;;5049855;28;20200;-65
2022/07/16 13:35:53;;;;;;;1.98;1.10;;;;;;;;;;5050008;28;20207;-66
2022/07/16 13:38:26;;;;;;;1.15;1.15;;;;;;;;;;5049817;28;20637;-66
2022/07/16 13:40:54;;;;;;;1.20;1.20;;;;;;;;;;5050196;28;20210;-67
2022/07/16 13:43:21;;;;;;;1.13;1.13;;;;;;;;;;5049706;28;20272;-61
2022/07/16 13:45:50;;;;;;;1.65;1.20;;;;;;;;;;5049625;28;20296;-61
2022/07/16 13:48:18;;;;;;;3.72;1.40;;;;;;;;;;5048636;28;20211;-62
2022/07/16 13:50:46;;;;;;;3.88;1.40;;;;;;;;;;5048663;28;20196;-62
2022/07/16 13:53:13;;;;;;;1.10;1.10;;;;;;;;;;5049537;28;20261;-63
2022/07/16 13:55:40;;;;;;;1.30;1.10;;;;;;;;;;5049564;28;20215;-63
2022/07/16 13:58:21;;;;;;;1.15;1.15;;;;;;;;;;5048778;28;20207;-63
2022/07/16 14:00:51;;;;;;;1.13;1.13;;;;;;;;;;5046159;28;20753;-63
2022/07/16 14:03:20;;;;;;;1.00;1.00;;;;;;;;;;5044665;28;20232;-63
2022/07/16 14:05:47;;;;;;;1.08;1.08;;;;;;;;;;5047786;28;20235;-63
2022/07/16 14:08:14;;;;;;;3.63;1.65;;;;;;;;;;5049543;28;20210;-63
2022/07/16 14:10:42;;;;;;;1.33;1.23;;;;;;;;;;5051131;28;20308;-63
2022/07/16 14:13:09;;;;;;;1.20;1.20;;;;;;;;;;5049610;28;22036;-63
2022/07/16 14:15:36;;;;;;;1.20;1.20;;;;;;;;;;5048526;28;20666;-63
2022/07/16 14:18:06;;;;;;;1.23;1.23;;;;;;;;;;5049128;28;20737;-63
2022/07/16 14:20:33;;;;;;;1.02;1.02;;;;;;;;;;5049089;28;20208;-63
2022/07/16 14:23:00;;;;;;;1.08;1.05;;;;;;;;;;5048895;28;20223;-63
2022/07/16 14:25:28;;;;;;;3.28;1.00;;;;;;;;;;5049345;28;20378;-64
2022/07/16 14:27:55;;;;;;;5.30;1.38;;;;;;;;;;5048704;28;20199;-63
2022/07/16 14:30:22;;;;;;;1.90;1.48;;;;;;;;;;5049428;28;20203;-63
2022/07/16 14:32:50;;;;;;;1.52;1.42;;;;;;;;;;5049149;28;20188;-62
2022/07/16 14:35:18;;;;;;;1.58;1.58;;;;;;;;;;5050561;28;20204;-63
2022/07/16 14:37:46;;;;;;;2.25;1.42;;;;;;;;;;5051344;28;20287;-62
2022/07/16 14:40:14;;;;;;;1.25;1.25;;;;;;;;;;5063918;28;20215;-62
2022/07/16 14:42:42;;;;;;;1.65;1.60;;;;;;;;;;5048989;28;20237;-62
2022/07/16 14:45:10;;;;;;;1.67;1.55;;;;;;;;;;5048600;28;20203;-63
2022/07/16 14:47:37;;;;;;;4.22;1.80;;;;;;;;;;5047656;28;20235;-62
2022/07/16 14:50:04;;;;;;;2.08;1.98;;;;;;;;;;5065470;28;20237;-64
2022/07/16 14:52:33;;;;;;;2.20;2.08;;;;;;;;;;5052299;28;20223;-63
2022/07/16 14:55:00;;;;;;;1.92;1.77;;;;;;;;;;5060904;28;20220;-63
2022/07/16 14:57:27;;;;;;;2.05;1.80;;;;;;;;;;5048987;28;20211;-63
2022/07/16 14:59:54;;;;;;;1.60;1.60;;;;;;;;;;5049437;28;20690;-63